createdAt,value
2018-03-29T00:01:47.096Z,93.70
2018-03-29T00:04:14.621Z,94.00
2018-03-29T00:06:42.154Z,93.50
2018-03-29T00:09:09.681Z,93.60
2018-03-29T00:11:37.185Z,93.40
2018-03-29T00:14:04.695Z,94.00
2018-03-29T00:16:32.256Z,92.80
2018-03-29T00:19:00.564Z,92.10
2018-03-29T00:21:28.098Z,92.00
2018-03-29T00:23:55.676Z,92.20
2018-03-29T00:26:23.215Z,92.40
2018-03-29T00:28:51.494Z,93.10
2018-03-29T00:31:18.987Z,93.30
2018-03-29T00:33:46.499Z,93.40
2018-03-29T00:36:14.904Z,92.90
2018-03-29T00:38:42.406Z,92.90
2018-03-29T00:41:09.900Z,92.70
2018-03-29T00:43:38.196Z,93.10
2018-03-29T00:46:05.810Z,93.10
2018-03-29T00:48:33.345Z,93.00
2018-03-29T00:51:00.921Z,93.50
2018-03-29T00:53:40.142Z,92.90
2018-03-29T00:56:07.679Z,93.60
2018-03-29T00:58:35.200Z,93.80
2018-03-29T01:01:03.476Z,92.80
2018-03-29T01:03:31.745Z,93.30
2018-03-29T01:06:00.039Z,93.20
2018-03-29T01:08:33.191Z,93.60
2018-03-29T01:11:00.699Z,93.60
2018-03-29T01:13:28.224Z,92.80
2018-03-29T01:15:56.524Z,92.40
2018-03-29T01:18:24.065Z,92.40
2018-03-29T01:20:52.335Z,93.10
2018-03-29T01:23:19.869Z,93.10
2018-03-29T01:25:47.377Z,92.80
2018-03-29T01:28:14.909Z,92.60
2018-03-29T01:30:43.211Z,92.50
2018-03-29T01:33:10.769Z,92.50
2018-03-29T01:35:38.300Z,92.20
2018-03-29T01:38:05.911Z,91.10
2018-03-29T01:40:33.423Z,92.50
2018-03-29T01:43:00.936Z,91.70
2018-03-29T01:45:28.481Z,91.80
2018-03-29T01:47:55.987Z,92.50
2018-03-29T01:50:23.524Z,92.90
2018-03-29T01:52:51.057Z,92.20
2018-03-29T01:55:18.555Z,92.40
2018-03-29T01:57:46.061Z,93.20
2018-03-29T02:00:13.583Z,92.20
2018-03-29T02:02:41.094Z,92.50
2018-03-29T02:05:08.624Z,92.40
2018-03-29T02:07:36.164Z,93.00
2018-03-29T02:10:03.672Z,92.40
2018-03-29T02:12:31.179Z,94.00
2018-03-29T02:14:59.480Z,93.60
2018-03-29T02:17:27.032Z,93.50
2018-03-29T02:19:54.572Z,93.40
2018-03-29T02:22:22.844Z,93.80
2018-03-29T02:24:50.346Z,93.80
2018-03-29T02:27:17.887Z,94.10
2018-03-29T02:29:45.425Z,94.30
2018-03-29T02:32:13.737Z,94.50
2018-03-29T02:34:41.277Z,94.50
2018-03-29T02:37:08.805Z,93.60
2018-03-29T02:39:36.325Z,93.90
2018-03-29T02:42:03.822Z,94.00
2018-03-29T02:44:31.334Z,94.40
2018-03-29T02:46:58.839Z,93.90
2018-03-29T02:49:26.376Z,93.60
2018-03-29T02:51:53.917Z,93.50
2018-03-29T02:54:21.440Z,93.40
2018-03-29T02:56:48.952Z,94.20
2018-03-29T02:59:16.481Z,92.60
2018-03-29T03:01:44.060Z,93.00
2018-03-29T03:04:11.568Z,92.90
2018-03-29T03:06:39.837Z,92.60
2018-03-29T03:09:08.325Z,92.00
2018-03-29T03:11:36.592Z,92.80
2018-03-29T03:14:04.884Z,92.90
2018-03-29T03:16:32.386Z,92.90
2018-03-29T03:18:59.920Z,92.90
2018-03-29T03:21:27.444Z,92.90
2018-03-29T03:23:55.716Z,92.30
2018-03-29T03:26:24.010Z,93.00
2018-03-29T03:28:51.516Z,93.10
2018-03-29T03:31:19.058Z,93.10
2018-03-29T03:33:46.565Z,92.70
2018-03-29T03:36:14.857Z,92.60
2018-03-29T03:38:42.395Z,92.60
2018-03-29T03:41:09.942Z,92.40
2018-03-29T03:43:37.463Z,92.70
2018-03-29T03:46:04.985Z,93.20
2018-03-29T03:48:32.506Z,93.20
2018-03-29T03:51:00.003Z,93.10
2018-03-29T03:53:28.267Z,93.30
2018-03-29T03:55:56.690Z,93.10
2018-03-29T03:58:24.200Z,93.10
2018-03-29T04:00:52.493Z,94.10
2018-03-29T04:03:20.027Z,94.10
2018-03-29T04:05:47.568Z,92.80
2018-03-29T04:08:15.101Z,92.70
2018-03-29T04:10:42.616Z,92.80
2018-03-29T04:13:10.115Z,92.40
2018-03-29T04:15:37.645Z,92.70
2018-03-29T04:18:05.180Z,91.90
2018-03-29T04:20:32.683Z,92.40
2018-03-29T04:23:00.364Z,92.60
2018-03-29T04:25:27.876Z,92.90
2018-03-29T04:27:55.372Z,92.00
2018-03-29T04:30:22.867Z,93.00
2018-03-29T04:32:51.166Z,92.60
2018-03-29T04:35:18.724Z,92.60
2018-03-29T04:37:46.216Z,92.70
2018-03-29T04:40:13.727Z,93.40
2018-03-29T04:42:41.257Z,93.70
2018-03-29T04:45:08.764Z,94.60
2018-03-29T04:47:36.300Z,94.20
2018-03-29T04:50:03.845Z,94.30
2018-03-29T04:52:31.351Z,95.30
2018-03-29T04:54:58.854Z,94.30
2018-03-29T04:57:26.355Z,94.40
2018-03-29T04:59:53.921Z,92.40
2018-03-29T05:02:21.434Z,93.40
2018-03-29T05:04:48.958Z,93.20
2018-03-29T05:07:16.469Z,94.00
2018-03-29T05:09:44.771Z,93.90
2018-03-29T05:12:12.309Z,93.90
2018-03-29T05:14:39.841Z,93.80
2018-03-29T05:17:07.346Z,93.60
2018-03-29T05:19:34.925Z,93.80
2018-03-29T05:22:02.427Z,94.60
2018-03-29T05:24:30.734Z,94.80
2018-03-29T05:26:58.240Z,94.80
2018-03-29T05:29:25.760Z,95.40
2018-03-29T05:31:53.256Z,95.00
2018-03-29T05:34:20.760Z,94.80
2018-03-29T05:36:48.276Z,94.30
2018-03-29T05:39:15.771Z,94.80
2018-03-29T05:41:43.296Z,94.40
2018-03-29T05:44:10.801Z,95.20
2018-03-29T05:46:38.321Z,94.70
2018-03-29T05:49:05.840Z,95.10
2018-03-29T05:51:33.345Z,95.10
2018-03-29T05:54:01.330Z,94.70
2018-03-29T05:56:28.886Z,94.90
2018-03-29T05:58:56.388Z,95.10
2018-03-29T06:01:23.922Z,95.00
2018-03-29T06:03:51.440Z,95.00
2018-03-29T06:06:18.990Z,95.00
2018-03-29T06:08:46.499Z,95.50
2018-03-29T06:11:14.036Z,96.20
2018-03-29T06:13:41.556Z,95.80
2018-03-29T06:16:09.088Z,95.50
2018-03-29T06:18:36.592Z,95.50
2018-03-29T06:21:04.867Z,95.00
2018-03-29T06:23:33.136Z,95.40
2018-03-29T06:26:00.670Z,95.40
2018-03-29T06:28:28.190Z,95.20
2018-03-29T06:30:55.712Z,94.60
2018-03-29T06:33:23.242Z,94.70
2018-03-29T06:35:50.753Z,93.70
2018-03-29T06:38:18.261Z,95.00
2018-03-29T06:40:45.792Z,94.50
2018-03-29T06:43:13.301Z,93.20
2018-03-29T06:45:40.801Z,94.40
2018-03-29T06:48:08.320Z,94.80
2018-03-29T06:50:36.617Z,93.70
2018-03-29T06:53:04.152Z,93.70
2018-03-29T06:55:31.702Z,94.70
2018-03-29T06:57:59.215Z,94.10
2018-03-29T07:00:26.879Z,94.60
2018-03-29T07:02:54.407Z,94.60
2018-03-29T07:05:21.942Z,95.10
2018-03-29T07:07:49.481Z,93.50
2018-03-29T07:10:17.023Z,94.00
2018-03-29T07:12:44.545Z,93.40
2018-03-29T07:15:12.061Z,92.90
2018-03-29T07:17:39.597Z,92.90
2018-03-29T07:20:07.124Z,92.20
2018-03-29T07:22:34.644Z,92.50
2018-03-29T07:25:02.196Z,93.10
2018-03-29T07:27:29.742Z,93.30
2018-03-29T07:29:57.271Z,92.60
2018-03-29T07:32:24.768Z,92.10
2018-03-29T07:34:52.277Z,92.10
2018-03-29T07:37:19.812Z,92.70
2018-03-29T07:39:47.360Z,93.20
2018-03-29T07:42:15.676Z,91.40
2018-03-29T07:44:43.236Z,91.40
2018-03-29T07:47:10.829Z,91.40
2018-03-29T07:49:38.336Z,91.60
2018-03-29T07:52:05.843Z,91.80
2018-03-29T07:54:33.362Z,91.60
2018-03-29T07:57:00.894Z,91.70
2018-03-29T07:59:28.436Z,90.90
2018-03-29T08:01:55.941Z,91.90
2018-03-29T08:04:23.446Z,90.70
2018-03-29T08:06:50.958Z,91.30
2018-03-29T08:09:18.488Z,91.00
2018-03-29T08:11:46.797Z,87.80
2018-03-29T08:14:14.304Z,87.90
2018-03-29T08:16:41.845Z,89.60
2018-03-29T08:19:09.389Z,90.70
2018-03-29T08:21:36.899Z,88.70
2018-03-29T08:24:04.434Z,85.30
2018-03-29T08:26:31.937Z,90.00
2018-03-29T08:28:59.464Z,89.50
2018-03-29T08:31:27.022Z,90.40
2018-03-29T08:33:55.348Z,85.10
2018-03-29T08:36:22.890Z,85.20
2018-03-29T08:38:50.429Z,90.10
2018-03-29T08:41:17.974Z,82.90
2018-03-29T08:43:45.481Z,89.70
2018-03-29T08:46:13.028Z,84.40
2018-03-29T08:48:40.533Z,81.90
2018-03-29T08:51:08.073Z,87.70
2018-03-29T08:53:35.615Z,88.50
2018-03-29T08:56:03.120Z,86.00
2018-03-29T08:58:30.638Z,83.00
2018-03-29T09:00:58.178Z,86.70
2018-03-29T09:03:25.728Z,83.60
2018-03-29T09:05:53.267Z,84.80
2018-03-29T09:08:21.576Z,89.00
2018-03-29T09:10:49.116Z,89.10
2018-03-29T09:13:16.651Z,86.60
2018-03-29T09:15:44.223Z,85.50
2018-03-29T09:18:11.752Z,87.80
2018-03-29T09:20:39.291Z,88.70
2018-03-29T09:23:06.806Z,85.90
2018-03-29T09:25:34.310Z,84.80
2018-03-29T09:28:01.865Z,84.70
2018-03-29T09:30:29.404Z,84.60
2018-03-29T09:32:56.957Z,88.40
2018-03-29T09:35:24.507Z,88.40
2018-03-29T09:37:52.023Z,86.70
2018-03-29T09:40:19.576Z,88.10
2018-03-29T09:42:47.130Z,85.80
2018-03-29T09:45:14.640Z,85.40
2018-03-29T09:47:42.227Z,84.40
2018-03-29T09:50:10.466Z,83.00
2018-03-29T09:52:38.771Z,85.00
2018-03-29T09:55:06.323Z,85.10
2018-03-29T09:57:33.842Z,84.80
2018-03-29T10:00:01.346Z,83.60
2018-03-29T10:02:31.711Z,86.60
2018-03-29T10:05:03.085Z,88.40
2018-03-29T10:07:34.372Z,84.50
2018-03-29T10:10:01.890Z,84.50
2018-03-29T10:12:30.159Z,84.90
2018-03-29T10:14:58.429Z,83.50
2018-03-29T10:17:25.965Z,83.40
2018-03-29T10:19:53.513Z,83.50
2018-03-29T10:22:21.063Z,82.30
2018-03-29T10:24:48.612Z,85.00
2018-03-29T10:27:16.136Z,82.70
2018-03-29T10:29:44.466Z,83.90
2018-03-29T10:32:12.023Z,83.50
2018-03-29T10:34:39.568Z,86.70
2018-03-29T10:37:07.123Z,87.60
2018-03-29T10:39:34.664Z,84.00
2018-03-29T10:42:02.193Z,83.90
2018-03-29T10:44:29.747Z,81.60
2018-03-29T10:46:58.075Z,84.90
2018-03-29T10:49:25.633Z,84.90
2018-03-29T10:51:53.272Z,83.50
2018-03-29T10:54:20.780Z,81.30
2018-03-29T10:56:48.307Z,86.40
2018-03-29T10:59:15.850Z,83.90
2018-03-29T11:01:43.367Z,83.40
2018-03-29T11:04:10.894Z,80.00
2018-03-29T11:06:38.438Z,77.50
2018-03-29T11:09:05.965Z,78.10
2018-03-29T11:11:33.496Z,73.40
2018-03-29T11:14:01.037Z,73.50
2018-03-29T11:16:28.603Z,71.30
2018-03-29T11:18:56.117Z,74.10
2018-03-29T11:21:24.419Z,76.20
2018-03-29T11:23:51.968Z,75.00
2018-03-29T11:26:19.505Z,73.60
2018-03-29T11:28:47.780Z,76.00
2018-03-29T11:31:16.086Z,76.60
2018-03-29T11:33:43.632Z,76.50
2018-03-29T11:36:11.234Z,77.00
2018-03-29T11:38:38.786Z,65.80
2018-03-29T11:41:06.317Z,70.20
2018-03-29T11:43:33.834Z,70.10
2018-03-29T11:46:01.360Z,64.40
2018-03-29T11:48:28.875Z,68.70
2018-03-29T11:50:56.422Z,67.60
2018-03-29T11:53:23.948Z,68.60
2018-03-29T11:55:51.460Z,64.30
2018-03-29T11:58:18.992Z,61.00
2018-03-29T12:00:46.519Z,62.90
2018-03-29T12:03:14.066Z,61.20
2018-03-29T12:05:41.592Z,64.90
2018-03-29T12:08:09.092Z,66.60
2018-03-29T12:10:37.408Z,71.20
2018-03-29T12:13:04.961Z,74.70
2018-03-29T12:15:33.251Z,59.50
2018-03-29T12:18:00.787Z,59.50
2018-03-29T12:20:29.126Z,61.50
2018-03-29T12:22:56.682Z,61.40
2018-03-29T12:25:24.195Z,62.80
2018-03-29T12:27:52.528Z,66.10
2018-03-29T12:30:20.095Z,66.20
2018-03-29T12:32:47.639Z,70.40
2018-03-29T12:35:15.156Z,67.70
2018-03-29T12:37:42.727Z,69.20
2018-03-29T12:40:10.269Z,66.70
2018-03-29T12:42:37.828Z,67.80
2018-03-29T12:45:05.448Z,68.60
2018-03-29T12:47:32.937Z,66.80
2018-03-29T12:50:00.453Z,70.00
2018-03-29T12:52:28.020Z,73.20
2018-03-29T12:55:07.387Z,70.60
2018-03-29T12:57:47.422Z,72.90
2018-03-29T13:00:14.951Z,72.80
2018-03-29T13:02:42.504Z,69.60
2018-03-29T13:05:10.044Z,69.30
2018-03-29T13:07:37.599Z,72.90
2018-03-29T13:10:05.136Z,71.80
2018-03-29T13:12:33.413Z,66.50
2018-03-29T13:15:00.942Z,66.30
2018-03-29T13:17:28.498Z,67.60
2018-03-29T13:19:56.077Z,70.00
2018-03-29T13:22:24.369Z,67.20
2018-03-29T13:24:52.651Z,67.50
2018-03-29T13:27:20.958Z,71.80
2018-03-29T13:29:48.509Z,71.80
2018-03-29T13:32:16.042Z,68.80
2018-03-29T13:34:44.340Z,64.50
2018-03-29T13:37:11.885Z,65.20
2018-03-29T13:39:39.428Z,63.30
2018-03-29T13:42:07.726Z,67.20
2018-03-29T13:44:35.271Z,67.30
2018-03-29T13:47:02.834Z,60.50
2018-03-29T13:49:30.370Z,62.00
2018-03-29T13:51:57.939Z,63.40
2018-03-29T13:54:26.237Z,66.90
2018-03-29T13:56:53.748Z,66.70
2018-03-29T13:59:21.334Z,63.90
2018-03-29T14:01:48.804Z,68.40
2018-03-29T14:04:16.352Z,65.80
2018-03-29T14:06:43.876Z,66.40
2018-03-29T14:09:11.435Z,64.80
2018-03-29T14:11:38.977Z,66.20
2018-03-29T14:14:06.527Z,66.20
2018-03-29T14:16:34.071Z,61.60
2018-03-29T14:19:01.625Z,62.60
2018-03-29T14:21:29.181Z,63.60
2018-03-29T14:23:56.731Z,64.30
2018-03-29T14:26:24.252Z,61.80
2018-03-29T14:28:51.838Z,60.90
2018-03-29T14:31:19.404Z,61.40
2018-03-29T14:33:46.928Z,61.10
2018-03-29T14:36:14.442Z,58.40
2018-03-29T14:38:42.037Z,62.30
2018-03-29T14:41:09.615Z,60.50
2018-03-29T14:43:37.183Z,59.00
2018-03-29T14:46:04.721Z,58.90
2018-03-29T14:48:32.255Z,62.90
2018-03-29T14:51:00.645Z,60.70
2018-03-29T14:53:28.255Z,60.50
2018-03-29T14:55:55.786Z,59.60
2018-03-29T14:58:23.345Z,58.10
2018-03-29T15:00:50.900Z,58.10
2018-03-29T15:03:18.452Z,61.20
2018-03-29T15:05:45.997Z,61.90
2018-03-29T15:08:13.547Z,63.90
2018-03-29T15:10:41.086Z,59.20
2018-03-29T15:13:08.628Z,61.20
2018-03-29T15:15:36.368Z,59.00
2018-03-29T15:18:04.771Z,64.20
2018-03-29T15:20:32.317Z,64.20
2018-03-29T15:23:00.639Z,60.40
2018-03-29T15:25:28.188Z,60.40
2018-03-29T15:27:55.742Z,62.90
2018-03-29T15:30:23.256Z,62.90
2018-03-29T15:32:50.816Z,64.80
2018-03-29T15:35:19.112Z,63.10
2018-03-29T15:37:47.411Z,63.10
2018-03-29T15:40:14.956Z,63.10
2018-03-29T15:42:42.476Z,61.50
2018-03-29T15:45:10.025Z,62.60
2018-03-29T15:47:37.565Z,64.50
2018-03-29T15:50:05.080Z,63.80
2018-03-29T15:52:33.392Z,64.50
2018-03-29T15:55:00.925Z,64.30
2018-03-29T15:57:28.461Z,64.40
2018-03-29T15:59:56.736Z,66.50
2018-03-29T16:02:25.032Z,65.00
2018-03-29T16:04:52.553Z,65.00
2018-03-29T16:07:20.082Z,63.40
2018-03-29T16:09:47.613Z,64.40
2018-03-29T16:12:15.130Z,65.00
2018-03-29T16:14:42.684Z,63.90
2018-03-29T16:17:10.225Z,62.20
2018-03-29T16:19:37.744Z,62.50
2018-03-29T16:22:05.271Z,66.70
2018-03-29T16:24:32.793Z,64.20
2018-03-29T16:27:00.304Z,63.90
2018-03-29T16:29:27.814Z,64.30
2018-03-29T16:31:56.115Z,64.40
2018-03-29T16:34:23.657Z,64.20
2018-03-29T16:36:51.182Z,64.70
2018-03-29T16:39:18.692Z,64.20
2018-03-29T16:41:46.193Z,65.40
2018-03-29T16:44:13.725Z,65.90
2018-03-29T16:46:42.015Z,70.10
2018-03-29T16:49:10.385Z,70.00
2018-03-29T16:51:38.661Z,68.20
2018-03-29T16:54:06.983Z,70.80
2018-03-29T16:56:34.509Z,71.00
2018-03-29T16:59:02.038Z,69.20
2018-03-29T17:01:29.570Z,69.00
2018-03-29T17:03:57.129Z,69.20
2018-03-29T17:06:24.685Z,69.50
2018-03-29T17:08:52.232Z,70.40
2018-03-29T17:11:19.885Z,71.70
2018-03-29T17:13:47.435Z,71.50
2018-03-29T17:16:15.729Z,70.00
2018-03-29T17:18:43.282Z,70.00
2018-03-29T17:21:10.800Z,71.80
2018-03-29T17:23:39.120Z,71.80
2018-03-29T17:26:06.665Z,71.70
2018-03-29T17:28:34.193Z,72.10
2018-03-29T17:31:02.466Z,70.90
2018-03-29T17:33:30.778Z,71.00
2018-03-29T17:35:58.340Z,70.90
2018-03-29T17:38:25.857Z,70.40
2018-03-29T17:40:54.147Z,70.20
2018-03-29T17:43:22.455Z,70.70
2018-03-29T17:45:50.027Z,70.70
2018-03-29T17:48:17.645Z,70.90
2018-03-29T17:50:45.209Z,72.20
2018-03-29T17:53:12.769Z,73.00
2018-03-29T17:55:40.286Z,72.80
2018-03-29T17:58:07.836Z,73.80
2018-03-29T18:00:35.382Z,74.70
2018-03-29T18:03:02.900Z,75.60
2018-03-29T18:05:30.510Z,76.60
2018-03-29T18:07:58.047Z,77.80
2018-03-29T18:10:25.614Z,78.90
2018-03-29T18:12:53.229Z,81.90
2018-03-29T18:15:20.761Z,79.50
2018-03-29T18:17:48.319Z,84.10
2018-03-29T18:20:15.864Z,81.20
2018-03-29T18:22:43.406Z,85.10
2018-03-29T18:25:10.957Z,86.10
2018-03-29T18:27:38.526Z,84.80
2018-03-29T18:30:06.089Z,86.30
2018-03-29T18:32:33.597Z,86.10
2018-03-29T18:35:01.910Z,88.70
2018-03-29T18:37:29.425Z,89.30
2018-03-29T18:39:56.987Z,86.10
2018-03-29T18:42:25.279Z,86.90
2018-03-29T18:44:52.806Z,86.80
2018-03-29T18:47:20.366Z,87.30
2018-03-29T18:49:48.282Z,88.40
2018-03-29T18:52:15.857Z,88.50
2018-03-29T18:54:43.384Z,88.70
2018-03-29T18:57:10.926Z,88.10
2018-03-29T18:59:39.214Z,90.40
2018-03-29T19:02:06.748Z,90.00
2018-03-29T19:04:35.104Z,91.10
2018-03-29T19:07:02.663Z,91.10
2018-03-29T19:09:30.205Z,90.60
2018-03-29T19:11:57.747Z,91.20
2018-03-29T19:14:25.306Z,90.80
2018-03-29T19:16:52.828Z,91.90
2018-03-29T19:19:20.479Z,91.60
2018-03-29T19:21:48.774Z,92.80
2018-03-29T19:24:16.306Z,92.80
2018-03-29T19:26:43.884Z,91.30
2018-03-29T19:29:12.286Z,91.70
2018-03-29T19:31:39.868Z,91.30
2018-03-29T19:34:07.386Z,91.20
2018-03-29T19:36:35.714Z,91.10
2018-03-29T19:39:03.281Z,91.00
2018-03-29T19:41:30.814Z,91.10
2018-03-29T19:43:58.372Z,91.40
2018-03-29T19:46:25.928Z,92.50
2018-03-29T19:48:53.446Z,92.60
2018-03-29T19:51:21.729Z,93.60
2018-03-29T19:53:49.263Z,93.50
2018-03-29T19:56:16.784Z,93.00
2018-03-29T19:58:44.297Z,92.70
2018-03-29T20:01:11.840Z,92.70
2018-03-29T20:03:39.386Z,94.20
2018-03-29T20:06:06.967Z,94.50
2018-03-29T20:08:34.521Z,94.30
2018-03-29T20:11:02.039Z,93.90
2018-03-29T20:13:29.562Z,94.80
2018-03-29T20:15:57.861Z,94.60
2018-03-29T20:18:26.145Z,94.70
2018-03-29T20:20:53.715Z,94.60
2018-03-29T20:23:21.265Z,94.60
2018-03-29T20:25:49.046Z,94.30
2018-03-29T20:28:16.602Z,94.40
2018-03-29T20:30:44.158Z,94.50
2018-03-29T20:33:11.694Z,95.10
2018-03-29T20:35:39.247Z,95.40
2018-03-29T20:38:06.778Z,96.20
2018-03-29T20:40:35.238Z,95.10
2018-03-29T20:43:02.757Z,95.00
2018-03-29T20:45:30.278Z,95.10
2018-03-29T20:47:58.589Z,96.00
2018-03-29T20:50:26.154Z,96.00
2018-03-29T20:52:53.704Z,96.50
2018-03-29T20:55:21.224Z,97.10
2018-03-29T20:57:49.501Z,96.10
2018-03-29T21:00:17.831Z,97.00
2018-03-29T21:02:45.393Z,96.90
2018-03-29T21:05:12.933Z,97.50
2018-03-29T21:07:40.460Z,97.60
2018-03-29T21:10:07.994Z,98.00
2018-03-29T21:12:35.538Z,97.80
2018-03-29T21:15:03.047Z,98.20
2018-03-29T21:17:30.593Z,96.90
2018-03-29T21:19:58.874Z,98.40
2018-03-29T21:22:27.178Z,98.20
2018-03-29T21:24:54.722Z,98.10
2018-03-29T21:27:22.258Z,98.00
2018-03-29T21:29:50.569Z,99.00
2018-03-29T21:32:18.096Z,99.00
2018-03-29T21:34:45.641Z,98.40
2018-03-29T21:37:13.925Z,97.80
2018-03-29T21:39:42.202Z,97.90
2018-03-29T21:42:10.483Z,98.10
2018-03-29T21:44:38.806Z,98.80
2018-03-29T21:47:06.366Z,98.80
2018-03-29T21:49:33.897Z,99.30
2018-03-29T21:52:01.441Z,97.80
2018-03-29T21:54:29.002Z,98.50
2018-03-29T21:56:56.554Z,98.30
2018-03-29T21:59:24.071Z,99.10
2018-03-29T22:01:51.623Z,99.20
2018-03-29T22:04:19.141Z,99.00
2018-03-29T22:06:46.708Z,98.90
2018-03-29T22:09:14.212Z,99.30
2018-03-29T22:11:41.748Z,99.10
2018-03-29T22:14:09.310Z,98.90
2018-03-29T22:16:36.861Z,99.30
2018-03-29T22:19:04.397Z,99.20
2018-03-29T22:21:31.909Z,99.30
2018-03-29T22:23:59.457Z,98.60
2018-03-29T22:26:26.989Z,98.70
2018-03-29T22:28:54.500Z,99.70
2018-03-29T22:31:22.012Z,99.90
2018-03-29T22:33:49.567Z,99.10
2018-03-29T22:36:17.120Z,99.30
2018-03-29T22:38:44.681Z,99.70
2018-03-29T22:41:12.225Z,99.60
2018-03-29T22:43:39.782Z,99.20
2018-03-29T22:46:07.329Z,99.00
2018-03-29T22:48:34.865Z,99.20
2018-03-29T22:51:03.173Z,99.80
2018-03-29T22:53:30.713Z,99.80
2018-03-29T22:55:58.257Z,99.90
2018-03-29T22:58:25.796Z,99.90
2018-03-29T23:00:53.315Z,99.90
2018-03-29T23:03:20.860Z,99.90
2018-03-29T23:05:48.371Z,99.90
2018-03-29T23:08:15.895Z,99.60
2018-03-29T23:10:43.403Z,99.90
2018-03-29T23:13:10.942Z,99.90
2018-03-29T23:15:38.473Z,99.90
2018-03-29T23:18:05.994Z,99.90
2018-03-29T23:20:34.285Z,99.90
2018-03-29T23:23:01.805Z,99.90
2018-03-29T23:25:29.312Z,99.90
2018-03-29T23:27:56.849Z,99.90
2018-03-29T23:30:24.404Z,99.90
2018-03-29T23:32:51.948Z,99.90
2018-03-29T23:35:19.475Z,99.90
2018-03-29T23:37:47.009Z,99.90
2018-03-29T23:40:14.530Z,99.90
2018-03-29T23:42:42.812Z,99.90
2018-03-29T23:45:11.103Z,99.90
2018-03-29T23:47:38.641Z,99.90
2018-03-29T23:50:06.155Z,99.90
2018-03-29T23:52:33.683Z,99.90
2018-03-29T23:55:01.194Z,99.90
2018-03-29T23:57:28.737Z,99.90
2018-03-29T23:59:56.280Z,99.90
